^^
No Wait Weather (KNEBELLE1) Station Historical Data
Daily Summary for May 12, 2019 Units:  English    Metric   Both
Daily Weekly Monthly Yearly Custom
  High: Low: Average:
Temperature: 62 °F 46.4 °F 53 °F
Dew Point: 49.73 °F 43.16 °F 46.7 °F
Humidity: 99% 53% 81%
Wind Speed: 5mph 0mph 0.1mph
Wind Gust: 10mph - -
Wind- - NE
Pressure: 29.79 in 29.64 in -
Precipitation: 0.08 in    
Historical Graphs
 
 
Tabular Data for May 12, 2019
Time Temperature Dew Point Pressure Wind Wind Speed Wind Gust Humidity Rainfall Rate (Hourly) solar
00:04 50.8 °F 49.42 °F 29.69 in Calm     95% 0 in WeatherCatV3.04B91 W/m2
00:08 50.7 °F 49.32 °F 29.69 in Calm     95% 0 in WeatherCatV3.04B91 W/m2
00:13 50.7 °F 49.32 °F 29.69 in Calm     95% 0 in WeatherCatV3.04B91 W/m2
00:19 50.7 °F 49.32 °F 29.69 in Calm     95% 0 in WeatherCatV3.04B91 W/m2
00:24 50.7 °F 49.6 °F 29.69 in Calm     96% 0 in WeatherCatV3.04B91 W/m2
00:29 50.8 °F 49.7 °F 29.69 in Calm     96% 0 in WeatherCatV3.04B91 W/m2
00:34 50.8 °F 49.7 °F 29.69 in Calm     96% 0 in WeatherCatV3.04B91 W/m2
00:39 50.8 °F 49.7 °F 29.69 in Calm     96% 0 in WeatherCatV3.04B91 W/m2
00:43 50.7 °F 49.6 °F 29.69 in Calm     96% 0 in WeatherCatV3.04B91 W/m2
00:49 50.5 °F 49.4 °F 29.68 in Calm     96% 0 in WeatherCatV3.04B91 W/m2
00:53 50.5 °F 49.4 °F 29.68 in Calm     96% 0 in WeatherCatV3.04B91 W/m2
00:59 50.2 °F 49.1 °F 29.68 in Calm     96% 0 in WeatherCatV3.04B91 W/m2
01:03 50.1 °F 49 °F 29.68 in Calm     96% 0 in WeatherCatV3.04B91 W/m2
01:08 49.9 °F 48.8 °F 29.68 in Calm     96% 0 in WeatherCatV3.04B91 W/m2
01:14 49.8 °F 48.7 °F 29.67 in Calm     96% 0 in WeatherCatV3.04B91 W/m2
01:18 49.6 °F 48.51 °F 29.67 in Calm     96% 0 in WeatherCatV3.04B91 W/m2
01:23 49.5 °F 48.41 °F 29.67 in Calm     96% 0 in WeatherCatV3.04B91 W/m2
01:30 49.4 °F 48.31 °F 29.66 in Calm     96% 0 in WeatherCatV3.04B91 W/m2
01:35 49.2 °F 48.11 °F 29.66 in Calm     96% 0 in WeatherCatV3.04B91 W/m2
01:39 49.1 °F 48.01 °F 29.66 in Calm     96% 0 in WeatherCatV3.04B91 W/m2
01:44 48.9 °F 47.81 °F 29.66 in Calm     96% 0 in WeatherCatV3.04B91 W/m2
01:49 48.8 °F 47.99 °F 29.67 in Calm     97% 0 in WeatherCatV3.04B91 W/m2
01:54 48.8 °F 47.99 °F 29.67 in Calm     97% 0 in WeatherCatV3.04B91 W/m2
01:59 48.6 °F 47.79 °F 29.67 in Calm     97% 0 in WeatherCatV3.04B91 W/m2
02:04 48.5 °F 47.69 °F 29.66 in Calm     97% 0 in WeatherCatV3.04B91 W/m2
02:09 48.5 °F 47.69 °F 29.66 in Calm     97% 0 in WeatherCatV3.04B91 W/m2
02:15 48.3 °F 47.49 °F 29.66 in Calm     97% 0 in WeatherCatV3.04B91 W/m2
02:19 48.2 °F 47.39 °F 29.66 in Calm     97% 0 in WeatherCatV3.04B91 W/m2
02:24 48.2 °F 47.39 °F 29.66 in Calm     97% 0 in WeatherCatV3.04B91 W/m2
02:29 48.5 °F 47.69 °F 29.66 in Calm     97% 0 in WeatherCatV3.04B91 W/m2
02:34 48.6 °F 47.79 °F 29.66 in Calm     97% 0 in WeatherCatV3.04B91 W/m2
02:40 48.8 °F 47.99 °F 29.66 in Calm     97% 0 in WeatherCatV3.04B91 W/m2
02:44 48.8 °F 47.99 °F 29.66 in Calm     97% 0 in WeatherCatV3.04B91 W/m2
02:49 48.9 °F 48.09 °F 29.66 in Calm     97% 0 in WeatherCatV3.04B91 W/m2
02:54 48.9 °F 48.09 °F 29.66 in Calm     97% 0 in WeatherCatV3.04B91 W/m2
02:59 49.1 °F 48.28 °F 29.66 in Calm     97% 0 in WeatherCatV3.04B91 W/m2
03:04 49.1 °F 48.28 °F 29.66 in Calm     97% 0 in WeatherCatV3.04B91 W/m2
03:09 49.2 °F 48.38 °F 29.66 in Calm     97% 0 in WeatherCatV3.04B91 W/m2
03:14 49.2 °F 48.38 °F 29.66 in Calm     97% 0 in WeatherCatV3.04B91 W/m2
03:19 49.4 °F 48.58 °F 29.66 in Calm     97% 0 in WeatherCatV3.04B91 W/m2
03:24 49.4 °F 48.58 °F 29.66 in Calm     97% 0 in WeatherCatV3.04B91 W/m2
03:29 49.4 °F 48.58 °F 29.66 in Calm     97% 0 in WeatherCatV3.04B91 W/m2
03:34 49.2 °F 48.66 °F 29.65 in Calm     98% 0 in WeatherCatV3.04B91 W/m2
03:39 49.2 °F 48.66 °F 29.65 in Calm     98% 0 in WeatherCatV3.04B91 W/m2
03:44 49.2 °F 48.66 °F 29.65 in Calm     98% 0 in WeatherCatV3.04B91 W/m2
03:49 49.1 °F 48.56 °F 29.64 in Calm     98% 0 in WeatherCatV3.04B91 W/m2
03:54 49.1 °F 48.56 °F 29.64 in Calm     98% 0 in WeatherCatV3.04B91 W/m2
03:59 48.9 °F 48.36 °F 29.64 in Calm     98% 0 in WeatherCatV3.04B91 W/m2
04:04 49.1 °F 48.56 °F 29.64 in Calm     98% 0 in WeatherCatV3.04B91 W/m2
04:09 49.1 °F 48.56 °F 29.64 in Calm     98% 0 in WeatherCatV3.04B91 W/m2
04:14 49.2 °F 48.66 °F 29.64 in Calm     98% 0 in WeatherCatV3.04B91 W/m2
04:19 49.4 °F 48.86 °F 29.64 in Calm     98% 0 in WeatherCatV3.04B91 W/m2
04:24 49.5 °F 48.96 °F 29.64 in Calm     98% 0.16 in WeatherCatV3.04B91 W/m2
04:29 49.6 °F 49.06 °F 29.64 in Calm     98% 0.28 in WeatherCatV3.04B91 W/m2
04:34 49.5 °F 48.96 °F 29.64 in Calm     98% 0.15 in WeatherCatV3.04B91 W/m2
04:39 49.5 °F 48.96 °F 29.64 in Calm     98% 0.09 in WeatherCatV3.04B91 W/m2
04:44 49.5 °F 48.96 °F 29.64 in Calm     98% 0.08 in WeatherCatV3.04B91 W/m2
04:49 49.5 °F 48.96 °F 29.64 in Calm     98% 0.05 in WeatherCatV3.04B91 W/m2
04:54 49.5 °F 48.96 °F 29.64 in Calm     98% 0.38 in WeatherCatV3.04B91 W/m2
04:59 49.5 °F 48.96 °F 29.64 in Calm     98% 0.1 in WeatherCatV3.04B91 W/m2
05:04 49.6 °F 49.06 °F 29.64 in Calm     98% 0.06 in WeatherCatV3.04B91 W/m2
05:09 49.6 °F 49.06 °F 29.64 in Calm     98% 0.04 in WeatherCatV3.04B91 W/m2
05:14 49.8 °F 49.26 °F 29.64 in Calm     98% 0 in WeatherCatV3.04B91 W/m2
05:19 49.8 °F 49.26 °F 29.64 in Calm     98% 0 in WeatherCatV3.04B91 W/m2
05:24 49.8 °F 49.26 °F 29.64 in Calm     98% 0 in WeatherCatV3.04B91 W/m2
05:29 49.8 °F 49.26 °F 29.64 in Calm     98% 0 in WeatherCatV3.04B91 W/m2
05:34 49.8 °F 49.26 °F 29.64 in Calm     98% 0 in WeatherCatV3.04B91 W/m2
05:39 49.8 °F 49.26 °F 29.64 in Calm   1 mph 98% 0 in WeatherCatV3.04B91 W/m2
05:44 49.6 °F 49.06 °F 29.64 in Calm     98% 0 in WeatherCatV3.04B91 W/m2
05:49 49.6 °F 49.06 °F 29.64 in Calm     98% 0 in WeatherCatV3.04B91 W/m2
05:54 49.5 °F 48.96 °F 29.64 in Calm     98% 0 in WeatherCatV3.04B91 W/m2
05:59 49.4 °F 48.86 °F 29.64 in Calm     98% 0 in WeatherCatV3.04B91 W/m2
06:04 49.2 °F 48.66 °F 29.64 in Calm     98% 0 in WeatherCatV3.04B91 W/m2
06:09 49.1 °F 48.56 °F 29.64 in Calm     98% 0 in WeatherCatV3.04B91 W/m2
06:14 48.9 °F 48.36 °F 29.64 in Calm     98% 0 in WeatherCatV3.04B91 W/m2
06:19 48.8 °F 48.26 °F 29.64 in Calm     98% 0 in WeatherCatV3.04B91 W/m2
06:24 48.6 °F 48.06 °F 29.64 in Calm     98% 0 in WeatherCatV3.04B91 W/m2
06:29 48.5 °F 47.96 °F 29.64 in Calm     98% 0 in WeatherCatV3.04B91 W/m2
06:34 48.3 °F 47.76 °F 29.64 in Calm     98% 0 in WeatherCatV3.04B91 W/m2
06:39 48.2 °F 47.66 °F 29.64 in Calm     98% 0 in WeatherCatV3.04B91 W/m2
06:44 47.9 °F 47.36 °F 29.64 in Calm     98% 0 in WeatherCatV3.04B91 W/m2
06:49 47.7 °F 47.16 °F 29.65 in Calm     98% 0 in WeatherCatV3.04B91 W/m2
06:54 47.4 °F 46.86 °F 29.65 in Calm     98% 0 in WeatherCatV3.04B91 W/m2
06:59 47.3 °F 46.76 °F 29.65 in Calm     98% 0 in WeatherCatV3.04B91 W/m2
07:04 47.1 °F 46.56 °F 29.65 in Calm     98% 0 in WeatherCatV3.04B91 W/m2
07:09 47 °F 46.46 °F 29.65 in Calm     98% 0 in WeatherCatV3.04B91 W/m2
07:14 47 °F 46.46 °F 29.65 in Calm     98% 0 in WeatherCatV3.04B91 W/m2
07:19 46.8 °F 46.26 °F 29.65 in Calm     98% 0 in WeatherCatV3.04B91 W/m2
07:24 47 °F 46.73 °F 29.65 in Calm     99% 0 in WeatherCatV3.04B91 W/m2
07:29 47.3 °F 47.03 °F 29.65 in Calm     99% 0 in WeatherCatV3.04B91 W/m2
07:34 47.6 °F 47.33 °F 29.65 in Calm     99% 0 in WeatherCatV3.04B91 W/m2
07:39 47.9 °F 47.63 °F 29.65 in Calm     99% 0 in WeatherCatV3.04B91 W/m2
07:44 48.3 °F 48.03 °F 29.65 in Calm     99% 0 in WeatherCatV3.04B91 W/m2
07:49 48.6 °F 48.06 °F 29.65 in Calm     98% 0 in WeatherCatV3.04B91 W/m2
07:54 48.8 °F 48.26 °F 29.65 in Calm   1 mph 98% 0 in WeatherCatV3.04B91 W/m2
07:59 48.8 °F 48.26 °F 29.65 in Calm     98% 0 in WeatherCatV3.04B91 W/m2
08:04 48.6 °F 48.06 °F 29.65 in Calm     98% 0 in WeatherCatV3.04B91 W/m2
08:09 48.5 °F 47.96 °F 29.65 in Calm     98% 0 in WeatherCatV3.04B91 W/m2
08:14 48.9 °F 48.36 °F 29.65 in Calm     98% 0 in WeatherCatV3.04B91 W/m2
08:19 49.6 °F 49.06 °F 29.66 in Calm     98% 0 in WeatherCatV3.04B91 W/m2
08:24 49.8 °F 48.98 °F 29.66 in Calm     97% 0 in WeatherCatV3.04B91 W/m2
08:29 50.1 °F 49.28 °F 29.66 in Calm     97% 0 in WeatherCatV3.04B91 W/m2
08:34 50.1 °F 49 °F 29.65 in Calm     96% 0 in WeatherCatV3.04B91 W/m2
08:39 50.4 °F 49.3 °F 29.65 in Calm   1 mph 96% 0 in WeatherCatV3.04B91 W/m2
08:44 51.1 °F 49.72 °F 29.65 in Calm   1 mph 95% 0 in WeatherCatV3.04B91 W/m2
08:49 51.4 °F 49.73 °F 29.65 in Calm     94% 0 in WeatherCatV3.04B91 W/m2
08:54 51.6 °F 49.64 °F 29.65 in Calm     93% 0 in WeatherCatV3.04B91 W/m2
08:59 51.6 °F 49.35 °F 29.65 in Calm     92% 0 in WeatherCatV3.04B91 W/m2
09:04 51.7 °F 48.86 °F 29.65 in Calm     90% 0 in WeatherCatV3.04B91 W/m2
09:09 51.7 °F 48.56 °F 29.65 in Calm     89% 0 in WeatherCatV3.04B91 W/m2
09:14 52 °F 48.56 °F 29.65 in Calm     88% 0 in WeatherCatV3.04B91 W/m2
09:19 52.3 °F 48.55 °F 29.65 in Calm     87% 0 in WeatherCatV3.04B91 W/m2
09:24 52.5 °F 47.81 °F 29.65 in Calm     84% 0 in WeatherCatV3.04B91 W/m2
09:29 52.3 °F 46.97 °F 29.65 in Calm     82% 0 in WeatherCatV3.04B91 W/m2
09:34 52.6 °F 47.26 °F 29.65 in Calm     82% 0 in WeatherCatV3.04B91 W/m2
09:39 53.1 °F 47.09 °F 29.65 in Calm     80% 0 in WeatherCatV3.04B91 W/m2
09:44 53.5 °F 46.81 °F 29.65 in Calm     78% 0 in WeatherCatV3.04B91 W/m2
09:49 53.8 °F 46.41 °F 29.65 in Calm   4 mph 76% 0 in WeatherCatV3.04B91 W/m2
09:54 54.1 °F 46.35 °F 29.65 in Calm     75% 0 in WeatherCatV3.04B91 W/m2
09:59 54.2 °F 45.73 °F 29.65 in Calm     73% 0 in WeatherCatV3.04B91 W/m2
10:04 54.2 °F 45.73 °F 29.65 in Calm   1 mph 73% 0 in WeatherCatV3.04B91 W/m2
10:09 54.4 °F 45.93 °F 29.65 in Calm     73% 0 in WeatherCatV3.04B91 W/m2
10:14 54.4 °F 45.56 °F 29.65 in Calm   1 mph 72% 0 in WeatherCatV3.04B91 W/m2
10:19 54.5 °F 45.66 °F 29.66 in Calm     72% 0 in WeatherCatV3.04B91 W/m2
10:24 55 °F 46.14 °F 29.66 in Calm     72% 0 in WeatherCatV3.04B91 W/m2
10:29 55.4 °F 45.78 °F 29.66 in Calm   1 mph 70% 0 in WeatherCatV3.04B91 W/m2
10:34 55.6 °F 45.21 °F 29.66 in Calm   1 mph 68% 0 in WeatherCatV3.04B91 W/m2
10:39 55.4 °F 45.02 °F 29.66 in Calm     68% 0 in WeatherCatV3.04B91 W/m2
10:44 55.6 °F 45.59 °F 29.66 in Calm     69% 0 in WeatherCatV3.04B91 W/m2
10:49 55.6 °F 45.21 °F 29.66 in Calm     68% 0 in WeatherCatV3.04B91 W/m2
10:54 55.4 °F 44.63 °F 29.66 in Calm     67% 0 in WeatherCatV3.04B91 W/m2
10:59 55.4 °F 45.02 °F 29.66 in Calm     68% 0 in WeatherCatV3.04B91 W/m2
11:04 55.4 °F 45.02 °F 29.66 in Calm     68% 0 in WeatherCatV3.04B91 W/m2
11:09 55.6 °F 45.21 °F 29.66 in Calm     68% 0 in WeatherCatV3.04B91 W/m2
11:14 55.7 °F 44.91 °F 29.66 in Calm     67% 0 in WeatherCatV3.04B91 W/m2
11:19 55.9 °F 45.1 °F 29.66 in Calm     67% 0 in WeatherCatV3.04B91 W/m2
11:23 55.9 °F 44.71 °F 29.66 in Calm     66% 0 in WeatherCatV3.04B91 W/m2
11:29 56.2 °F 45.39 °F 29.66 in Calm     67% 0 in WeatherCatV3.04B91 W/m2
11:34 56.3 °F 45.09 °F 29.66 in Calm     66% 0 in WeatherCatV3.04B91 W/m2
11:39 56.3 °F 45.09 °F 29.66 in Calm     66% 0 in WeatherCatV3.04B91 W/m2
11:44 56.6 °F 44.97 °F 29.66 in Calm   1 mph 65% 0 in WeatherCatV3.04B91 W/m2
11:49 57.3 °F 45.23 °F 29.66 in Calm   1 mph 64% 0 in WeatherCatV3.04B91 W/m2
11:54 57.8 °F 45.7 °F 29.66 in Calm     64% 0 in WeatherCatV3.04B91 W/m2
11:59 58 °F 45.05 °F 29.66 in Calm     62% 0 in WeatherCatV3.04B91 W/m2
12:04 57.5 °F 44.15 °F 29.66 in Calm     61% 0 in WeatherCatV3.04B91 W/m2
12:09 57.2 °F 44.3 °F 29.66 in Calm     62% 0 in WeatherCatV3.04B91 W/m2
12:14 57 °F 44.11 °F 29.66 in Calm   2 mph 62% 0 in WeatherCatV3.04B91 W/m2
12:19 56.9 °F 44.01 °F 29.66 in Calm     62% 0 in WeatherCatV3.04B91 W/m2
12:24 57 °F 44.11 °F 29.66 in Calm     62% 0 in WeatherCatV3.04B91 W/m2
12:29 57 °F 43.68 °F 29.66 in Calm   2 mph 61% 0 in WeatherCatV3.04B91 W/m2
12:34 57 °F 43.68 °F 29.66 in Calm   1 mph 61% 0 in WeatherCatV3.04B91 W/m2
12:39 56.9 °F 44.85 °F 29.66 in Calm   4 mph 64% 0 in WeatherCatV3.04B91 W/m2
12:44 57 °F 44.11 °F 29.66 in Calm     62% 0 in WeatherCatV3.04B91 W/m2
12:49 56.9 °F 43.16 °F 29.66 in Calm     60% 0 in WeatherCatV3.04B91 W/m2
12:54 56.9 °F 43.16 °F 29.66 in Calm     60% 0 in WeatherCatV3.04B91 W/m2
12:59 57 °F 44.11 °F 29.66 in ENE 4 mph 4 mph 62% 0 in WeatherCatV3.04B91 W/m2
13:04 57.2 °F 44.3 °F 29.66 in Calm   3 mph 62% 0 in WeatherCatV3.04B91 W/m2
13:09 57.2 °F 43.87 °F 29.66 in Calm   1 mph 61% 0 in WeatherCatV3.04B91 W/m2
13:14 57 °F 43.25 °F 29.66 in Calm     60% 0 in WeatherCatV3.04B91 W/m2
13:19 57 °F 43.68 °F 29.66 in Calm     61% 0 in WeatherCatV3.04B91 W/m2
13:24 57.3 °F 44.39 °F 29.66 in Calm     62% 0 in WeatherCatV3.04B91 W/m2
13:29 57.5 °F 43.72 °F 29.66 in Calm   1 mph 60% 0 in WeatherCatV3.04B91 W/m2
13:34 57.6 °F 43.82 °F 29.66 in Calm     60% 0 in WeatherCatV3.04B91 W/m2
13:39 57.8 °F 44 °F 29.66 in Calm     60% 0 in WeatherCatV3.04B91 W/m2
13:44 58 °F 44.63 °F 29.66 in Calm     61% 0 in WeatherCatV3.04B91 W/m2
13:49 58.3 °F 44.91 °F 29.66 in Calm     61% 0 in WeatherCatV3.04B91 W/m2
13:54 59 °F 46 °F 29.66 in Calm     62% 0 in WeatherCatV3.04B91 W/m2
13:59 59.3 °F 44.97 °F 29.66 in Calm     59% 0 in WeatherCatV3.04B91 W/m2
14:04 59 °F 43.79 °F 29.66 in Calm     57% 0 in WeatherCatV3.04B91 W/m2
14:09 58.9 °F 44.6 °F 29.66 in Calm   1 mph 59% 0 in WeatherCatV3.04B91 W/m2
14:14 58.7 °F 43.96 °F 29.66 in Calm     58% 0 in WeatherCatV3.04B91 W/m2
14:19 58.6 °F 44.31 °F 29.66 in Calm     59% 0 in WeatherCatV3.04B91 W/m2
14:24 59.2 °F 44.88 °F 29.66 in Calm   1 mph 59% 0 in WeatherCatV3.04B91 W/m2
14:29 59.9 °F 43.21 °F 29.66 in Calm     54% 0 in WeatherCatV3.04B91 W/m2
14:34 60.9 °F 44.62 °F 29.66 in Calm     55% 0 in WeatherCatV3.04B91 W/m2
14:39 61.6 °F 44.79 °F 29.66 in NNE 2 mph 3 mph 54% 0 in WeatherCatV3.04B91 W/m2
14:44 62 °F 45.16 °F 29.66 in Calm   1 mph 54% 0 in WeatherCatV3.04B91 W/m2
14:49 61.8 °F 44.48 °F 29.66 in NNE 3 mph 3 mph 53% 0 in WeatherCatV3.04B91 W/m2
14:54 61.2 °F 44.42 °F 29.66 in Calm   1 mph 54% 0 in WeatherCatV3.04B91 W/m2
14:59 60.1 °F 45.27 °F 29.66 in North 4 mph 6 mph 58% 0 in WeatherCatV3.04B91 W/m2
15:04 58.9 °F 45.9 °F 29.67 in Calm   5 mph 62% 0 in WeatherCatV3.04B91 W/m2
15:09 58 °F 46.7 °F 29.67 in East 5 mph 10 mph 66% 0 in WeatherCatV3.04B91 W/m2
15:14 57.5 °F 47.41 °F 29.67 in East 3 mph 9 mph 69% 0 in WeatherCatV3.04B91 W/m2
15:19 57.2 °F 47.88 °F 29.68 in Calm   6 mph 71% 0 in WeatherCatV3.04B91 W/m2
15:24 56.9 °F 47.97 °F 29.68 in Calm   7 mph 72% 0 in WeatherCatV3.04B91 W/m2
15:29 56.6 °F 47.68 °F 29.68 in Calm   6 mph 72% 0 in WeatherCatV3.04B91 W/m2
15:34 56.6 °F 47.68 °F 29.68 in Calm     72% 0 in WeatherCatV3.04B91 W/m2
15:39 56.6 °F 48.04 °F 29.68 in NE 3 mph 7 mph 73% 0 in WeatherCatV3.04B91 W/m2
15:44 56.6 °F 48.04 °F 29.68 in Calm   3 mph 73% 0 in WeatherCatV3.04B91 W/m2
15:49 57 °F 48.79 °F 29.68 in Calm   3 mph 74% 0 in WeatherCatV3.04B91 W/m2
15:54 57 °F 48.79 °F 29.68 in Calm   4 mph 74% 0 in WeatherCatV3.04B91 W/m2
15:59 57.6 °F 49.73 °F 29.68 in Calm   4 mph 75% 0 in WeatherCatV3.04B91 W/m2
16:04 57.5 °F 48.91 °F 29.68 in Calm   1 mph 73% 0 in WeatherCatV3.04B91 W/m2
16:09 57.3 °F 48.35 °F 29.68 in ENE 2 mph 3 mph 72% 0 in WeatherCatV3.04B91 W/m2
16:14 57.3 °F 48.35 °F 29.68 in Calm   2 mph 72% 0 in WeatherCatV3.04B91 W/m2
16:19 57.5 °F 48.17 °F 29.68 in Calm   4 mph 71% 0 in WeatherCatV3.04B91 W/m2
16:24 57.3 °F 47.6 °F 29.68 in Calm   4 mph 70% 0 in WeatherCatV3.04B91 W/m2
16:29 57.5 °F 47.41 °F 29.68 in Calm   2 mph 69% 0 in WeatherCatV3.04B91 W/m2
16:34 57.6 °F 47.11 °F 29.68 in Calm   1 mph 68% 0 in WeatherCatV3.04B91 W/m2
16:39 58.1 °F 47.2 °F 29.68 in NE 1 mph 1 mph 67% 0 in WeatherCatV3.04B91 W/m2
16:44 58.3 °F 46.99 °F 29.68 in Calm     66% 0 in WeatherCatV3.04B91 W/m2
16:49 58.6 °F 47.67 °F 29.68 in NE 1 mph 5 mph 67% 0 in WeatherCatV3.04B91 W/m2
16:54 58.9 °F 47.96 °F 29.68 in Calm   3 mph 67% 0 in WeatherCatV3.04B91 W/m2
16:59 59 °F 46.84 °F 29.68 in Calm     64% 0 in WeatherCatV3.04B91 W/m2
17:04 59 °F 46.84 °F 29.68 in Calm   4 mph 64% 0 in WeatherCatV3.04B91 W/m2
17:09 59.2 °F 47.03 °F 29.68 in Calm   4 mph 64% 0 in WeatherCatV3.04B91 W/m2
17:14 59.5 °F 46.89 °F 29.68 in NE 4 mph 5 mph 63% 0 in WeatherCatV3.04B91 W/m2
17:19 59 °F 45.57 °F 29.68 in Calm   1 mph 61% 0 in WeatherCatV3.04B91 W/m2
17:24 58.7 °F 45.71 °F 29.68 in Calm     62% 0 in WeatherCatV3.04B91 W/m2
17:29 58.6 °F 45.62 °F 29.68 in ENE 3 mph 4 mph 62% 0 in WeatherCatV3.04B91 W/m2
17:34 58.3 °F 45.34 °F 29.68 in Calm     62% 0 in WeatherCatV3.04B91 W/m2
17:39 58.3 °F 45.76 °F 29.68 in Calm     63% 0 in WeatherCatV3.04B91 W/m2
17:44 58.4 °F 45.85 °F 29.68 in Calm     63% 0 in WeatherCatV3.04B91 W/m2
17:49 58.6 °F 45.62 °F 29.68 in NE 1 mph 6 mph 62% 0 in WeatherCatV3.04B91 W/m2
17:54 58.6 °F 46.04 °F 29.68 in Calm     63% 0 in WeatherCatV3.04B91 W/m2
17:59 58.6 °F 45.62 °F 29.68 in NE 1 mph 5 mph 62% 0 in WeatherCatV3.04B91 W/m2
18:04 58.6 °F 45.62 °F 29.69 in Calm   3 mph 62% 0 in WeatherCatV3.04B91 W/m2
18:09 58.7 °F 46.55 °F 29.69 in Calm   3 mph 64% 0 in WeatherCatV3.04B91 W/m2
18:14 58.4 °F 46.27 °F 29.69 in Calm   1 mph 64% 0 in WeatherCatV3.04B91 W/m2
18:19 58 °F 46.7 °F 29.70 in ENE 1 mph 6 mph 66% 0 in WeatherCatV3.04B91 W/m2
18:24 57.5 °F 46.63 °F 29.70 in ENE 1 mph 6 mph 67% 0 in WeatherCatV3.04B91 W/m2
18:29 57.2 °F 46.73 °F 29.70 in NE 3 mph 3 mph 68% 0 in WeatherCatV3.04B91 W/m2
18:34 57 °F 47.31 °F 29.70 in Calm     70% 0 in WeatherCatV3.04B91 W/m2
18:39 56.9 °F 47.22 °F 29.70 in Calm   3 mph 70% 0 in WeatherCatV3.04B91 W/m2
18:44 56.9 °F 47.22 °F 29.70 in Calm     70% 0 in WeatherCatV3.04B91 W/m2
18:49 56.9 °F 47.22 °F 29.71 in Calm   2 mph 70% 0 in WeatherCatV3.04B91 W/m2
18:54 56.9 °F 47.22 °F 29.71 in Calm   4 mph 70% 0 in WeatherCatV3.04B91 W/m2
18:59 56.9 °F 47.22 °F 29.71 in Calm     70% 0 in WeatherCatV3.04B91 W/m2
19:04 56.9 °F 47.22 °F 29.71 in Calm     70% 0 in WeatherCatV3.04B91 W/m2
19:09 57 °F 47.31 °F 29.71 in Calm     70% 0 in WeatherCatV3.04B91 W/m2
19:14 56.9 °F 47.22 °F 29.71 in Calm     70% 0 in WeatherCatV3.04B91 W/m2
19:19 56.9 °F 46.83 °F 29.71 in Calm   3 mph 69% 0 in WeatherCatV3.04B91 W/m2
19:24 56.9 °F 46.83 °F 29.71 in Calm     69% 0 in WeatherCatV3.04B91 W/m2
19:29 56.9 °F 46.83 °F 29.71 in Calm     69% 0 in WeatherCatV3.04B91 W/m2
19:34 56.7 °F 46.64 °F 29.71 in Calm   3 mph 69% 0 in WeatherCatV3.04B91 W/m2
19:39 56.7 °F 46.64 °F 29.71 in Calm     69% 0 in WeatherCatV3.04B91 W/m2
19:44 56.5 °F 46.83 °F 29.71 in Calm   3 mph 70% 0 in WeatherCatV3.04B91 W/m2
19:49 56.2 °F 46.55 °F 29.71 in Calm   4 mph 70% 0 in WeatherCatV3.04B91 W/m2
19:54 55.6 °F 46.35 °F 29.71 in Calm   5 mph 71% 0 in WeatherCatV3.04B91 W/m2
19:59 55.3 °F 46.06 °F 29.71 in Calm   2 mph 71% 0 in WeatherCatV3.04B91 W/m2
20:04 55.1 °F 46.24 °F 29.72 in Calm   5 mph 72% 0 in WeatherCatV3.04B91 W/m2
20:09 55 °F 46.14 °F 29.72 in Calm     72% 0 in WeatherCatV3.04B91 W/m2
20:14 54.7 °F 46.22 °F 29.72 in Calm     73% 0 in WeatherCatV3.04B91 W/m2
20:19 54.5 °F 46.02 °F 29.72 in Calm     73% 0 in WeatherCatV3.04B91 W/m2
20:24 54.2 °F 46.09 °F 29.72 in Calm     74% 0 in WeatherCatV3.04B91 W/m2
20:29 53.9 °F 45.8 °F 29.72 in Calm     74% 0 in WeatherCatV3.04B91 W/m2
20:34 53.6 °F 45.87 °F 29.73 in Calm     75% 0 in WeatherCatV3.04B91 W/m2
20:39 53.5 °F 46.12 °F 29.73 in Calm     76% 0 in WeatherCatV3.04B91 W/m2
20:44 53.2 °F 45.83 °F 29.73 in Calm     76% 0 in WeatherCatV3.04B91 W/m2
20:49 53.1 °F 46.08 °F 29.73 in Calm     77% 0 in WeatherCatV3.04B91 W/m2
20:54 52.8 °F 45.79 °F 29.73 in Calm     77% 0 in WeatherCatV3.04B91 W/m2
20:59 52.6 °F 45.6 °F 29.73 in Calm     77% 0 in WeatherCatV3.04B91 W/m2
21:04 52.5 °F 45.84 °F 29.74 in Calm     78% 0 in WeatherCatV3.04B91 W/m2
21:09 52.3 °F 45.65 °F 29.74 in Calm     78% 0 in WeatherCatV3.04B91 W/m2
21:14 52.2 °F 45.55 °F 29.74 in Calm     78% 0 in WeatherCatV3.04B91 W/m2
21:19 52 °F 45.35 °F 29.74 in Calm     78% 0 in WeatherCatV3.04B91 W/m2
21:24 51.9 °F 45.59 °F 29.74 in Calm     79% 0 in WeatherCatV3.04B91 W/m2
21:29 51.9 °F 45.59 °F 29.74 in Calm     79% 0 in WeatherCatV3.04B91 W/m2
21:34 51.7 °F 45.4 °F 29.75 in Calm     79% 0 in WeatherCatV3.04B91 W/m2
21:39 51.6 °F 45.3 °F 29.75 in Calm     79% 0 in WeatherCatV3.04B91 W/m2
21:44 51.4 °F 45.11 °F 29.75 in Calm     79% 0 in WeatherCatV3.04B91 W/m2
21:49 51.3 °F 45.01 °F 29.76 in Calm     79% 0 in WeatherCatV3.04B91 W/m2
21:54 51 °F 45.05 °F 29.76 in Calm     80% 0 in WeatherCatV3.04B91 W/m2
21:59 50.8 °F 44.85 °F 29.76 in Calm     80% 0 in WeatherCatV3.04B91 W/m2
22:04 50.5 °F 44.89 °F 29.76 in Calm     81% 0 in WeatherCatV3.04B91 W/m2
22:09 50.4 °F 44.79 °F 29.76 in Calm     81% 0 in WeatherCatV3.04B91 W/m2
22:14 50.1 °F 44.82 °F 29.76 in Calm     82% 0 in WeatherCatV3.04B91 W/m2
22:19 49.8 °F 44.53 °F 29.77 in Calm     82% 0 in WeatherCatV3.04B91 W/m2
22:24 49.5 °F 44.55 °F 29.77 in Calm     83% 0 in WeatherCatV3.04B91 W/m2
22:29 49.2 °F 44.26 °F 29.77 in Calm     83% 0 in WeatherCatV3.04B91 W/m2
22:34 48.9 °F 44.28 °F 29.77 in Calm     84% 0 in WeatherCatV3.04B91 W/m2
22:39 48.8 °F 44.49 °F 29.77 in Calm     85% 0 in WeatherCatV3.04B91 W/m2
22:44 48.6 °F 44.6 °F 29.77 in Calm     86% 0 in WeatherCatV3.04B91 W/m2
22:49 48.5 °F 44.51 °F 29.78 in Calm     86% 0 in WeatherCatV3.04B91 W/m2
22:54 48.2 °F 44.21 °F 29.78 in Calm     86% 0 in WeatherCatV3.04B91 W/m2
22:59 48 °F 44.32 °F 29.78 in Calm     87% 0 in WeatherCatV3.04B91 W/m2
23:04 48 °F 44.32 °F 29.78 in Calm     87% 0 in WeatherCatV3.04B91 W/m2
23:09 47.9 °F 44.52 °F 29.78 in Calm     88% 0 in WeatherCatV3.04B91 W/m2
23:14 47.7 °F 44.32 °F 29.78 in Calm     88% 0 in WeatherCatV3.04B91 W/m2
23:19 47.6 °F 44.22 °F 29.79 in Calm     88% 0 in WeatherCatV3.04B91 W/m2
23:24 47.4 °F 44.32 °F 29.79 in Calm     89% 0 in WeatherCatV3.04B91 W/m2
23:29 47.3 °F 44.22 °F 29.79 in Calm     89% 0 in WeatherCatV3.04B91 W/m2
23:34 47.1 °F 44.03 °F 29.79 in Calm     89% 0 in WeatherCatV3.04B91 W/m2
23:39 47 °F 43.93 °F 29.79 in Calm     89% 0 in WeatherCatV3.04B91 W/m2
23:44 46.8 °F 44.02 °F 29.79 in Calm     90% 0 in WeatherCatV3.04B91 W/m2
23:49 46.7 °F 43.92 °F 29.79 in Calm     90% 0 in WeatherCatV3.04B91 W/m2
23:54 46.5 °F 43.73 °F 29.79 in Calm     90% 0 in WeatherCatV3.04B91 W/m2
23:59 46.4 °F 43.63 °F 29.79 in Calm     90% 0 in WeatherCatV3.04B91 W/m2
Bellevue, Nebraska, USA
Compliments of Weather Underground - 3.25 mb